sensor_id;sensor_type;location;lat;lon;timestamp;P1;durP1;ratioP1;P2;durP2;ratioP2
735;SDS011;352;48.626;9.238;2023-02-28T00:01:28;3.65;;;3.35;;
735;SDS011;352;48.626;9.238;2023-02-28T00:03:55;3.92;;;3.53;;
735;SDS011;352;48.626;9.238;2023-02-28T00:06:22;3.63;;;3.17;;
735;SDS011;352;48.626;9.238;2023-02-28T00:08:50;3.08;;;2.85;;
735;SDS011;352;48.626;9.238;2023-02-28T00:11:16;4.15;;;3.20;;
735;SDS011;352;48.626;9.238;2023-02-28T00:13:44;3.30;;;3.00;;
735;SDS011;352;48.626;9.238;2023-02-28T00:16:14;4.07;;;3.22;;
735;SDS011;352;48.626;9.238;2023-02-28T00:18:42;3.80;;;3.40;;
735;SDS011;352;48.626;9.238;2023-02-28T00:21:09;3.80;;;3.50;;
735;SDS011;352;48.626;9.238;2023-02-28T00:23:36;3.70;;;3.40;;
735;SDS011;352;48.626;9.238;2023-02-28T00:26:03;3.33;;;3.10;;
735;SDS011;352;48.626;9.238;2023-02-28T00:28:31;4.53;;;3.80;;
735;SDS011;352;48.626;9.238;2023-02-28T00:30:58;4.78;;;3.85;;
735;SDS011;352;48.626;9.238;2023-02-28T00:33:27;4.57;;;3.70;;
735;SDS011;352;48.626;9.238;2023-02-28T00:36:00;5.07;;;3.88;;
735;SDS011;352;48.626;9.238;2023-02-28T00:38:28;6.03;;;3.40;;
735;SDS011;352;48.626;9.238;2023-02-28T00:40:55;4.22;;;3.45;;
735;SDS011;352;48.626;9.238;2023-02-28T00:43:23;3.30;;;3.00;;
735;SDS011;352;48.626;9.238;2023-02-28T00:45:50;3.70;;;3.40;;
735;SDS011;352;48.626;9.238;2023-02-28T00:48:16;3.22;;;3.03;;
735;SDS011;352;48.626;9.238;2023-02-28T00:50:45;3.90;;;3.15;;
735;SDS011;352;48.626;9.238;2023-02-28T00:53:14;3.97;;;3.05;;
735;SDS011;352;48.626;9.238;2023-02-28T00:55:41;3.70;;;3.40;;
735;SDS011;352;48.626;9.238;2023-02-28T00:58:08;4.55;;;3.63;;
735;SDS011;352;48.626;9.238;2023-02-28T01:00:35;3.97;;;3.58;;
735;SDS011;352;48.626;9.238;2023-02-28T01:03:01;4.30;;;3.83;;
735;SDS011;352;48.626;9.238;2023-02-28T01:05:28;4.13;;;3.75;;
735;SDS011;352;48.626;9.238;2023-02-28T01:07:56;4.45;;;3.50;;
735;SDS011;352;48.626;9.238;2023-02-28T01:10:23;3.67;;;3.38;;
735;SDS011;352;48.626;9.238;2023-02-28T01:12:51;6.75;;;3.83;;
735;SDS011;352;48.626;9.238;2023-02-28T01:15:18;3.42;;;3.22;;
735;SDS011;352;48.626;9.238;2023-02-28T01:17:44;3.50;;;3.20;;
735;SDS011;352;48.626;9.238;2023-02-28T01:20:11;3.40;;;3.00;;
735;SDS011;352;48.626;9.238;2023-02-28T01:22:38;4.35;;;3.25;;
735;SDS011;352;48.626;9.238;2023-02-28T01:25:07;3.60;;;3.30;;
735;SDS011;352;48.626;9.238;2023-02-28T01:27:34;3.80;;;3.50;;
735;SDS011;352;48.626;9.238;2023-02-28T01:30:01;4.20;;;3.30;;
735;SDS011;352;48.626;9.238;2023-02-28T01:32:28;15.23;;;4.20;;
735;SDS011;352;48.626;9.238;2023-02-28T01:34:54;4.50;;;3.17;;
735;SDS011;352;48.626;9.238;2023-02-28T01:37:21;3.58;;;3.28;;
735;SDS011;352;48.626;9.238;2023-02-28T01:39:48;4.18;;;3.78;;
735;SDS011;352;48.626;9.238;2023-02-28T01:42:16;3.75;;;3.40;;
735;SDS011;352;48.626;9.238;2023-02-28T01:47:46;5.25;;;4.00;;
735;SDS011;352;48.626;9.238;2023-02-28T01:50:16;4.45;;;3.42;;
735;SDS011;352;48.626;9.238;2023-02-28T01:52:47;4.10;;;3.67;;
735;SDS011;352;48.626;9.238;2023-02-28T01:55:15;7.28;;;3.92;;
735;SDS011;352;48.626;9.238;2023-02-28T01:57:46;4.10;;;3.58;;
735;SDS011;352;48.626;9.238;2023-02-28T02:00:17;3.97;;;3.30;;
735;SDS011;352;48.626;9.238;2023-02-28T02:02:48;4.10;;;3.53;;
735;SDS011;352;48.626;9.238;2023-02-28T02:05:17;4.30;;;3.90;;
735;SDS011;352;48.626;9.238;2023-02-28T02:07:46;3.83;;;3.53;;
735;SDS011;352;48.626;9.238;2023-02-28T02:10:16;5.05;;;3.63;;
735;SDS011;352;48.626;9.238;2023-02-28T02:15:46;5.13;;;3.60;;
735;SDS011;352;48.626;9.238;2023-02-28T02:18:22;3.65;;;3.25;;
735;SDS011;352;48.626;9.238;2023-02-28T02:21:03;6.07;;;3.70;;
735;SDS011;352;48.626;9.238;2023-02-28T02:30:55;3.55;;;3.25;;
735;SDS011;352;48.626;9.238;2023-02-28T02:33:41;5.50;;;4.60;;
735;SDS011;352;48.626;9.238;2023-02-28T02:36:29;4.78;;;3.67;;
735;SDS011;352;48.626;9.238;2023-02-28T02:39:04;4.60;;;4.20;;
735;SDS011;352;48.626;9.238;2023-02-28T02:41:37;4.95;;;4.18;;
735;SDS011;352;48.626;9.238;2023-02-28T02:44:12;4.13;;;3.65;;
735;SDS011;352;48.626;9.238;2023-02-28T02:46:45;4.53;;;3.80;;
735;SDS011;352;48.626;9.238;2023-02-28T02:49:15;4.15;;;3.85;;
735;SDS011;352;48.626;9.238;2023-02-28T02:51:47;4.70;;;4.15;;
735;SDS011;352;48.626;9.238;2023-02-28T02:54:17;5.35;;;4.25;;
735;SDS011;352;48.626;9.238;2023-02-28T02:56:47;3.97;;;3.67;;
735;SDS011;352;48.626;9.238;2023-02-28T02:59:16;4.80;;;4.10;;
735;SDS011;352;48.626;9.238;2023-02-28T03:01:46;5.15;;;4.07;;
735;SDS011;352;48.626;9.238;2023-02-28T03:04:16;6.07;;;4.85;;
735;SDS011;352;48.626;9.238;2023-02-28T03:06:47;5.35;;;4.28;;
735;SDS011;352;48.626;9.238;2023-02-28T03:09:19;6.15;;;4.13;;
735;SDS011;352;48.626;9.238;2023-02-28T03:11:46;5.15;;;3.88;;
735;SDS011;352;48.626;9.238;2023-02-28T03:14:17;5.82;;;5.22;;
735;SDS011;352;48.626;9.238;2023-02-28T03:17:09;4.40;;;4.00;;
735;SDS011;352;48.626;9.238;2023-02-28T03:19:55;5.10;;;4.60;;
735;SDS011;352;48.626;9.238;2023-02-28T03:25:27;5.03;;;4.50;;
735;SDS011;352;48.626;9.238;2023-02-28T03:28:02;6.40;;;4.70;;
735;SDS011;352;48.626;9.238;2023-02-28T03:30:37;5.68;;;4.30;;
735;SDS011;352;48.626;9.238;2023-02-28T03:33:08;4.95;;;4.55;;
735;SDS011;352;48.626;9.238;2023-02-28T03:35:39;4.85;;;4.13;;
735;SDS011;352;48.626;9.238;2023-02-28T03:38:12;4.80;;;4.30;;
735;SDS011;352;48.626;9.238;2023-02-28T03:40:45;4.63;;;4.20;;
735;SDS011;352;48.626;9.238;2023-02-28T03:43:18;4.32;;;3.90;;
735;SDS011;352;48.626;9.238;2023-02-28T03:45:48;6.53;;;4.65;;
735;SDS011;352;48.626;9.238;2023-02-28T03:48:19;5.78;;;4.18;;
735;SDS011;352;48.626;9.238;2023-02-28T03:50:51;4.65;;;4.18;;
735;SDS011;352;48.626;9.238;2023-02-28T03:53:24;5.43;;;4.55;;
735;SDS011;352;48.626;9.238;2023-02-28T03:55:56;10.55;;;4.50;;
735;SDS011;352;48.626;9.238;2023-02-28T03:58:27;5.30;;;4.85;;
735;SDS011;352;48.626;9.238;2023-02-28T04:00:59;6.47;;;4.80;;
735;SDS011;352;48.626;9.238;2023-02-28T04:03:34;5.50;;;4.47;;
735;SDS011;352;48.626;9.238;2023-02-28T04:06:01;5.85;;;5.05;;
735;SDS011;352;48.626;9.238;2023-02-28T04:08:30;5.35;;;4.85;;
735;SDS011;352;48.626;9.238;2023-02-28T04:10:58;5.00;;;4.50;;
735;SDS011;352;48.626;9.238;2023-02-28T04:13:31;5.82;;;5.35;;
735;SDS011;352;48.626;9.238;2023-02-28T04:15:57;6.22;;;5.28;;
735;SDS011;352;48.626;9.238;2023-02-28T04:18:24;5.72;;;4.68;;
735;SDS011;352;48.626;9.238;2023-02-28T04:20:51;5.38;;;4.85;;
735;SDS011;352;48.626;9.238;2023-02-28T04:23:18;5.95;;;4.90;;
735;SDS011;352;48.626;9.238;2023-02-28T04:25:46;7.22;;;5.20;;
735;SDS011;352;48.626;9.238;2023-02-28T04:28:12;6.18;;;5.55;;
735;SDS011;352;48.626;9.238;2023-02-28T04:30:39;5.30;;;4.80;;
735;SDS011;352;48.626;9.238;2023-02-28T04:33:06;6.35;;;5.30;;
735;SDS011;352;48.626;9.238;2023-02-28T04:35:32;5.95;;;5.00;;
735;SDS011;352;48.626;9.238;2023-02-28T04:37:59;6.63;;;5.07;;
735;SDS011;352;48.626;9.238;2023-02-28T04:40:26;8.45;;;6.03;;
735;SDS011;352;48.626;9.238;2023-02-28T04:42:54;6.05;;;5.13;;
735;SDS011;352;48.626;9.238;2023-02-28T04:45:20;7.07;;;5.57;;
735;SDS011;352;48.626;9.238;2023-02-28T04:47:47;4.50;;;3.42;;
735;SDS011;352;48.626;9.238;2023-02-28T04:50:14;4.82;;;4.18;;
735;SDS011;352;48.626;9.238;2023-02-28T04:52:41;6.70;;;5.07;;
735;SDS011;352;48.626;9.238;2023-02-28T04:55:08;5.85;;;5.25;;
735;SDS011;352;48.626;9.238;2023-02-28T04:57:35;5.70;;;5.10;;
735;SDS011;352;48.626;9.238;2023-02-28T05:00:04;6.07;;;5.00;;
735;SDS011;352;48.626;9.238;2023-02-28T05:02:36;5.90;;;4.85;;
735;SDS011;352;48.626;9.238;2023-02-28T05:05:03;7.30;;;6.15;;
735;SDS011;352;48.626;9.238;2023-02-28T05:07:30;6.47;;;5.88;;
735;SDS011;352;48.626;9.238;2023-02-28T05:09:57;6.40;;;5.88;;
735;SDS011;352;48.626;9.238;2023-02-28T05:12:23;6.80;;;5.95;;
735;SDS011;352;48.626;9.238;2023-02-28T05:14:50;6.78;;;6.18;;
735;SDS011;352;48.626;9.238;2023-02-28T05:17:18;7.60;;;6.90;;
735;SDS011;352;48.626;9.238;2023-02-28T05:19:45;6.80;;;6.18;;
735;SDS011;352;48.626;9.238;2023-02-28T05:22:12;8.23;;;6.55;;
735;SDS011;352;48.626;9.238;2023-02-28T05:24:40;7.30;;;6.47;;
735;SDS011;352;48.626;9.238;2023-02-28T05:27:07;11.30;;;6.45;;
735;SDS011;352;48.626;9.238;2023-02-28T05:29:34;6.30;;;5.68;;
735;SDS011;352;48.626;9.238;2023-02-28T05:32:06;11.23;;;6.95;;
735;SDS011;352;48.626;9.238;2023-02-28T05:34:35;7.00;;;6.40;;
735;SDS011;352;48.626;9.238;2023-02-28T05:37:02;9.00;;;7.10;;
735;SDS011;352;48.626;9.238;2023-02-28T05:39:29;6.85;;;6.25;;
735;SDS011;352;48.626;9.238;2023-02-28T05:41:56;8.38;;;7.00;;
735;SDS011;352;48.626;9.238;2023-02-28T05:44:23;7.57;;;6.88;;
735;SDS011;352;48.626;9.238;2023-02-28T05:46:50;7.82;;;7.03;;
735;SDS011;352;48.626;9.238;2023-02-28T05:49:17;8.35;;;7.55;;
735;SDS011;352;48.626;9.238;2023-02-28T05:51:45;7.90;;;6.03;;
735;SDS011;352;48.626;9.238;2023-02-28T05:54:11;8.25;;;7.45;;
735;SDS011;352;48.626;9.238;2023-02-28T05:56:38;7.43;;;6.68;;
735;SDS011;352;48.626;9.238;2023-02-28T05:59:09;8.45;;;7.15;;
735;SDS011;352;48.626;9.238;2023-02-28T06:01:36;7.47;;;6.78;;
735;SDS011;352;48.626;9.238;2023-02-28T06:04:05;13.50;;;7.97;;
735;SDS011;352;48.626;9.238;2023-02-28T06:06:33;11.95;;;7.10;;
735;SDS011;352;48.626;9.238;2023-02-28T06:09:02;7.03;;;6.38;;
735;SDS011;352;48.626;9.238;2023-02-28T06:11:29;8.48;;;7.38;;
735;SDS011;352;48.626;9.238;2023-02-28T06:13:56;11.00;;;7.30;;
735;SDS011;352;48.626;9.238;2023-02-28T06:16:24;8.60;;;7.03;;
735;SDS011;352;48.626;9.238;2023-02-28T06:18:52;9.25;;;8.00;;
735;SDS011;352;48.626;9.238;2023-02-28T06:21:20;6.88;;;6.20;;
735;SDS011;352;48.626;9.238;2023-02-28T06:23:47;8.07;;;7.25;;
735;SDS011;352;48.626;9.238;2023-02-28T06:26:16;8.20;;;7.20;;
735;SDS011;352;48.626;9.238;2023-02-28T06:28:42;8.85;;;7.00;;
735;SDS011;352;48.626;9.238;2023-02-28T06:31:09;10.73;;;8.20;;
735;SDS011;352;48.626;9.238;2023-02-28T06:33:39;10.60;;;7.85;;
735;SDS011;352;48.626;9.238;2023-02-28T06:36:07;7.07;;;6.25;;
735;SDS011;352;48.626;9.238;2023-02-28T06:38:36;8.73;;;7.43;;
735;SDS011;352;48.626;9.238;2023-02-28T06:41:03;10.80;;;6.50;;
735;SDS011;352;48.626;9.238;2023-02-28T06:43:34;7.97;;;7.18;;
735;SDS011;352;48.626;9.238;2023-02-28T06:46:03;11.05;;;7.75;;
735;SDS011;352;48.626;9.238;2023-02-28T06:48:33;8.07;;;7.20;;
735;SDS011;352;48.626;9.238;2023-02-28T06:51:03;8.77;;;7.43;;
735;SDS011;352;48.626;9.238;2023-02-28T06:53:31;7.93;;;7.15;;
735;SDS011;352;48.626;9.238;2023-02-28T06:55:58;9.18;;;8.05;;
735;SDS011;352;48.626;9.238;2023-02-28T06:58:25;8.27;;;7.45;;
735;SDS011;352;48.626;9.238;2023-02-28T07:00:53;9.13;;;7.80;;
735;SDS011;352;48.626;9.238;2023-02-28T07:03:21;8.00;;;6.93;;
735;SDS011;352;48.626;9.238;2023-02-28T07:05:50;9.23;;;8.18;;
735;SDS011;352;48.626;9.238;2023-02-28T07:08:16;9.38;;;8.40;;
735;SDS011;352;48.626;9.238;2023-02-28T07:10:43;7.53;;;6.32;;
735;SDS011;352;48.626;9.238;2023-02-28T07:13:10;10.38;;;8.50;;
735;SDS011;352;48.626;9.238;2023-02-28T07:15:38;8.57;;;6.40;;
735;SDS011;352;48.626;9.238;2023-02-28T07:18:06;9.23;;;8.30;;
735;SDS011;352;48.626;9.238;2023-02-28T07:20:33;10.80;;;8.20;;
735;SDS011;352;48.626;9.238;2023-02-28T07:22:59;8.73;;;7.95;;
735;SDS011;352;48.626;9.238;2023-02-28T07:25:27;8.75;;;7.50;;
735;SDS011;352;48.626;9.238;2023-02-28T07:27:55;9.80;;;8.35;;
735;SDS011;352;48.626;9.238;2023-02-28T07:30:24;10.00;;;7.57;;
735;SDS011;352;48.626;9.238;2023-02-28T07:32:50;8.98;;;8.07;;
735;SDS011;352;48.626;9.238;2023-02-28T07:35:21;11.15;;;9.07;;
735;SDS011;352;48.626;9.238;2023-02-28T07:37:47;10.48;;;8.65;;
735;SDS011;352;48.626;9.238;2023-02-28T07:40:14;10.00;;;8.38;;
735;SDS011;352;48.626;9.238;2023-02-28T07:42:42;9.15;;;8.13;;
735;SDS011;352;48.626;9.238;2023-02-28T07:45:10;10.15;;;7.55;;
735;SDS011;352;48.626;9.238;2023-02-28T07:47:37;9.18;;;8.10;;
735;SDS011;352;48.626;9.238;2023-02-28T07:50:05;10.00;;;8.60;;
735;SDS011;352;48.626;9.238;2023-02-28T07:52:34;9.98;;;8.95;;
735;SDS011;352;48.626;9.238;2023-02-28T07:55:02;9.95;;;8.55;;
735;SDS011;352;48.626;9.238;2023-02-28T07:57:29;11.68;;;9.45;;
735;SDS011;352;48.626;9.238;2023-02-28T07:59:56;10.88;;;9.00;;
735;SDS011;352;48.626;9.238;2023-02-28T08:02:23;9.27;;;8.38;;
735;SDS011;352;48.626;9.238;2023-02-28T08:04:50;10.60;;;8.75;;
735;SDS011;352;48.626;9.238;2023-02-28T08:07:17;10.65;;;9.38;;
735;SDS011;352;48.626;9.238;2023-02-28T08:09:45;10.70;;;8.70;;
735;SDS011;352;48.626;9.238;2023-02-28T08:12:12;9.60;;;8.60;;
735;SDS011;352;48.626;9.238;2023-02-28T08:14:39;10.13;;;8.77;;
735;SDS011;352;48.626;9.238;2023-02-28T08:17:06;16.17;;;9.70;;
735;SDS011;352;48.626;9.238;2023-02-28T08:19:33;10.65;;;8.40;;
735;SDS011;352;48.626;9.238;2023-02-28T08:21:59;10.35;;;9.25;;
735;SDS011;352;48.626;9.238;2023-02-28T08:24:26;12.57;;;9.30;;
735;SDS011;352;48.626;9.238;2023-02-28T08:26:54;9.93;;;7.40;;
735;SDS011;352;48.626;9.238;2023-02-28T08:29:21;11.23;;;9.23;;
735;SDS011;352;48.626;9.238;2023-02-28T08:31:48;10.18;;;8.95;;
735;SDS011;352;48.626;9.238;2023-02-28T08:34:15;10.57;;;8.57;;
735;SDS011;352;48.626;9.238;2023-02-28T08:36:42;11.10;;;9.82;;
735;SDS011;352;48.626;9.238;2023-02-28T08:39:09;10.00;;;8.40;;
735;SDS011;352;48.626;9.238;2023-02-28T08:41:36;9.35;;;8.10;;
735;SDS011;352;48.626;9.238;2023-02-28T08:44:04;10.40;;;9.20;;
735;SDS011;352;48.626;9.238;2023-02-28T08:46:31;11.82;;;8.98;;
735;SDS011;352;48.626;9.238;2023-02-28T08:48:58;9.82;;;8.75;;
735;SDS011;352;48.626;9.238;2023-02-28T08:51:26;12.25;;;8.70;;
735;SDS011;352;48.626;9.238;2023-02-28T08:53:54;9.70;;;8.70;;
735;SDS011;352;48.626;9.238;2023-02-28T08:56:23;11.95;;;9.55;;
735;SDS011;352;48.626;9.238;2023-02-28T08:58:50;11.10;;;9.15;;
735;SDS011;352;48.626;9.238;2023-02-28T09:01:22;12.48;;;7.88;;
735;SDS011;352;48.626;9.238;2023-02-28T09:03:50;13.77;;;9.93;;
735;SDS011;352;48.626;9.238;2023-02-28T09:06:18;10.35;;;8.50;;
735;SDS011;352;48.626;9.238;2023-02-28T09:08:45;10.63;;;8.32;;
735;SDS011;352;48.626;9.238;2023-02-28T09:11:12;9.93;;;9.00;;
735;SDS011;352;48.626;9.238;2023-02-28T09:13:39;11.77;;;9.65;;
735;SDS011;352;48.626;9.238;2023-02-28T09:16:07;9.95;;;8.70;;
735;SDS011;352;48.626;9.238;2023-02-28T09:18:37;11.40;;;8.32;;
735;SDS011;352;48.626;9.238;2023-02-28T09:21:04;10.10;;;9.00;;
735;SDS011;352;48.626;9.238;2023-02-28T09:23:31;11.30;;;8.80;;
735;SDS011;352;48.626;9.238;2023-02-28T09:25:58;10.13;;;8.77;;
735;SDS011;352;48.626;9.238;2023-02-28T09:28:24;11.15;;;10.13;;
735;SDS011;352;48.626;9.238;2023-02-28T09:30:52;10.80;;;9.55;;
735;SDS011;352;48.626;9.238;2023-02-28T09:33:20;10.30;;;9.05;;
735;SDS011;352;48.626;9.238;2023-02-28T09:35:49;10.50;;;8.30;;
735;SDS011;352;48.626;9.238;2023-02-28T09:38:17;10.45;;;9.07;;
735;SDS011;352;48.626;9.238;2023-02-28T09:40:47;12.70;;;9.10;;
735;SDS011;352;48.626;9.238;2023-02-28T09:43:16;9.20;;;8.30;;
735;SDS011;352;48.626;9.238;2023-02-28T09:45:47;10.50;;;9.43;;
735;SDS011;352;48.626;9.238;2023-02-28T09:48:24;9.55;;;8.55;;
735;SDS011;352;48.626;9.238;2023-02-28T09:50:59;9.32;;;8.38;;
735;SDS011;352;48.626;9.238;2023-02-28T09:53:29;10.50;;;9.30;;
735;SDS011;352;48.626;9.238;2023-02-28T09:55:59;10.32;;;8.40;;
735;SDS011;352;48.626;9.238;2023-02-28T09:58:31;10.25;;;9.02;;
735;SDS011;352;48.626;9.238;2023-02-28T10:01:03;11.40;;;9.82;;
735;SDS011;352;48.626;9.238;2023-02-28T10:03:36;9.82;;;8.85;;
735;SDS011;352;48.626;9.238;2023-02-28T10:06:09;10.85;;;9.82;;
735;SDS011;352;48.626;9.238;2023-02-28T10:08:40;10.95;;;8.75;;
735;SDS011;352;48.626;9.238;2023-02-28T10:11:16;10.30;;;9.15;;
735;SDS011;352;48.626;9.238;2023-02-28T10:13:49;9.32;;;8.43;;
735;SDS011;352;48.626;9.238;2023-02-28T10:16:22;11.23;;;10.05;;
735;SDS011;352;48.626;9.238;2023-02-28T10:18:54;9.73;;;8.30;;
735;SDS011;352;48.626;9.238;2023-02-28T10:21:28;11.70;;;9.65;;
735;SDS011;352;48.626;9.238;2023-02-28T10:24:02;9.73;;;8.82;;
735;SDS011;352;48.626;9.238;2023-02-28T10:26:36;10.35;;;9.25;;
735;SDS011;352;48.626;9.238;2023-02-28T10:29:03;8.55;;;7.75;;
735;SDS011;352;48.626;9.238;2023-02-28T10:31:30;13.35;;;9.40;;
735;SDS011;352;48.626;9.238;2023-02-28T10:33:57;10.88;;;9.10;;
735;SDS011;352;48.626;9.238;2023-02-28T10:36:24;8.43;;;7.60;;
735;SDS011;352;48.626;9.238;2023-02-28T10:38:52;10.98;;;9.75;;
735;SDS011;352;48.626;9.238;2023-02-28T10:41:26;10.32;;;9.23;;
735;SDS011;352;48.626;9.238;2023-02-28T10:44:11;15.05;;;11.75;;
735;SDS011;352;48.626;9.238;2023-02-28T10:46:40;28.75;;;17.85;;
735;SDS011;352;48.626;9.238;2023-02-28T10:49:12;19.27;;;11.95;;
735;SDS011;352;48.626;9.238;2023-02-28T10:51:41;11.68;;;9.52;;
735;SDS011;352;48.626;9.238;2023-02-28T10:54:16;9.65;;;6.53;;
735;SDS011;352;48.626;9.238;2023-02-28T10:56:44;10.52;;;7.88;;
735;SDS011;352;48.626;9.238;2023-02-28T11:01:56;8.50;;;7.28;;
735;SDS011;352;48.626;9.238;2023-02-28T11:04:32;8.45;;;7.40;;
735;SDS011;352;48.626;9.238;2023-02-28T11:07:02;9.30;;;5.93;;
735;SDS011;352;48.626;9.238;2023-02-28T11:09:33;19.90;;;10.90;;
735;SDS011;352;48.626;9.238;2023-02-28T11:12:04;8.40;;;7.13;;
735;SDS011;352;48.626;9.238;2023-02-28T11:14:32;8.82;;;7.93;;
735;SDS011;352;48.626;9.238;2023-02-28T11:17:03;8.85;;;7.75;;
735;SDS011;352;48.626;9.238;2023-02-28T11:19:43;8.65;;;7.78;;
735;SDS011;352;48.626;9.238;2023-02-28T11:22:15;10.57;;;9.45;;
735;SDS011;352;48.626;9.238;2023-02-28T11:24:46;11.00;;;8.65;;
735;SDS011;352;48.626;9.238;2023-02-28T11:30:24;9.35;;;8.38;;
735;SDS011;352;48.626;9.238;2023-02-28T11:32:56;10.68;;;9.65;;
735;SDS011;352;48.626;9.238;2023-02-28T11:35:24;9.57;;;8.63;;
735;SDS011;352;48.626;9.238;2023-02-28T11:37:54;9.73;;;8.70;;
735;SDS011;352;48.626;9.238;2023-02-28T11:40:24;9.00;;;8.10;;
735;SDS011;352;48.626;9.238;2023-02-28T11:43:08;9.73;;;8.50;;
735;SDS011;352;48.626;9.238;2023-02-28T11:45:54;9.50;;;8.55;;
735;SDS011;352;48.626;9.238;2023-02-28T11:48:32;10.63;;;8.73;;
735;SDS011;352;48.626;9.238;2023-02-28T11:51:06;9.52;;;8.30;;
735;SDS011;352;48.626;9.238;2023-02-28T11:56:39;9.82;;;8.10;;
735;SDS011;352;48.626;9.238;2023-02-28T11:59:27;10.55;;;9.18;;
735;SDS011;352;48.626;9.238;2023-02-28T12:02:05;10.70;;;8.43;;
735;SDS011;352;48.626;9.238;2023-02-28T12:04:56;10.25;;;8.73;;
735;SDS011;352;48.626;9.238;2023-02-28T12:07:49;8.93;;;8.00;;
735;SDS011;352;48.626;9.238;2023-02-28T12:10:24;9.15;;;8.25;;
735;SDS011;352;48.626;9.238;2023-02-28T12:12:57;9.13;;;7.85;;
735;SDS011;352;48.626;9.238;2023-02-28T12:15:47;12.18;;;9.10;;
735;SDS011;352;48.626;9.238;2023-02-28T12:18:36;10.13;;;7.85;;
735;SDS011;352;48.626;9.238;2023-02-28T12:21:18;8.60;;;7.43;;
735;SDS011;352;48.626;9.238;2023-02-28T12:24:01;9.23;;;8.32;;
735;SDS011;352;48.626;9.238;2023-02-28T12:26:38;11.20;;;8.85;;
735;SDS011;352;48.626;9.238;2023-02-28T12:29:14;10.57;;;9.57;;
735;SDS011;352;48.626;9.238;2023-02-28T12:31:48;13.10;;;7.80;;
735;SDS011;352;48.626;9.238;2023-02-28T12:34:16;12.07;;;8.48;;
735;SDS011;352;48.626;9.238;2023-02-28T12:36:46;12.07;;;9.05;;
735;SDS011;352;48.626;9.238;2023-02-28T12:39:15;10.32;;;7.72;;
735;SDS011;352;48.626;9.238;2023-02-28T12:41:47;9.52;;;7.88;;
735;SDS011;352;48.626;9.238;2023-02-28T12:44:20;11.50;;;9.35;;
735;SDS011;352;48.626;9.238;2023-02-28T12:46:53;11.23;;;9.38;;
735;SDS011;352;48.626;9.238;2023-02-28T12:49:22;9.05;;;8.02;;
735;SDS011;352;48.626;9.238;2023-02-28T12:51:55;9.55;;;8.50;;
735;SDS011;352;48.626;9.238;2023-02-28T12:54:23;10.98;;;8.48;;
735;SDS011;352;48.626;9.238;2023-02-28T12:56:56;14.57;;;10.32;;
735;SDS011;352;48.626;9.238;2023-02-28T12:59:32;11.90;;;9.00;;
735;SDS011;352;48.626;9.238;2023-02-28T13:02:09;10.07;;;8.93;;
735;SDS011;352;48.626;9.238;2023-02-28T13:05:07;12.88;;;9.82;;
735;SDS011;352;48.626;9.238;2023-02-28T13:07:51;10.07;;;8.30;;
735;SDS011;352;48.626;9.238;2023-02-28T13:10:39;9.13;;;5.15;;
735;SDS011;352;48.626;9.238;2023-02-28T13:13:12;10.55;;;8.27;;
735;SDS011;352;48.626;9.238;2023-02-28T13:15:43;11.40;;;8.10;;
735;SDS011;352;48.626;9.238;2023-02-28T13:18:27;9.52;;;8.07;;
735;SDS011;352;48.626;9.238;2023-02-28T13:20:56;10.52;;;9.43;;
735;SDS011;352;48.626;9.238;2023-02-28T13:29:30;7.80;;;6.55;;
735;SDS011;352;48.626;9.238;2023-02-28T13:38:16;10.98;;;9.65;;
735;SDS011;352;48.626;9.238;2023-02-28T13:40:48;11.10;;;9.50;;
735;SDS011;352;48.626;9.238;2023-02-28T13:43:16;9.68;;;8.40;;
735;SDS011;352;48.626;9.238;2023-02-28T13:48:37;14.43;;;9.10;;
735;SDS011;352;48.626;9.238;2023-02-28T13:57:09;10.07;;;8.15;;
735;SDS011;352;48.626;9.238;2023-02-28T13:59:46;9.73;;;8.57;;
735;SDS011;352;48.626;9.238;2023-02-28T14:05:34;10.00;;;7.65;;
735;SDS011;352;48.626;9.238;2023-02-28T14:08:05;10.85;;;8.20;;
735;SDS011;352;48.626;9.238;2023-02-28T14:10:41;8.15;;;7.35;;
735;SDS011;352;48.626;9.238;2023-02-28T14:13:12;9.23;;;7.55;;
735;SDS011;352;48.626;9.238;2023-02-28T14:16:01;12.18;;;8.45;;
735;SDS011;352;48.626;9.238;2023-02-28T14:18:30;11.75;;;8.25;;
735;SDS011;352;48.626;9.238;2023-02-28T14:21:14;9.43;;;8.43;;
735;SDS011;352;48.626;9.238;2023-02-28T14:24:00;15.35;;;8.65;;
735;SDS011;352;48.626;9.238;2023-02-28T14:26:55;10.10;;;8.65;;
735;SDS011;352;48.626;9.238;2023-02-28T14:29:33;9.73;;;7.97;;
735;SDS011;352;48.626;9.238;2023-02-28T14:32:12;10.50;;;8.02;;
735;SDS011;352;48.626;9.238;2023-02-28T14:34:45;8.25;;;7.43;;
735;SDS011;352;48.626;9.238;2023-02-28T14:37:19;56.63;;;29.48;;
735;SDS011;352;48.626;9.238;2023-02-28T14:39:51;18.33;;;11.23;;
735;SDS011;352;48.626;9.238;2023-02-28T14:42:28;10.15;;;6.75;;
735;SDS011;352;48.626;9.238;2023-02-28T14:44:56;8.50;;;7.60;;
735;SDS011;352;48.626;9.238;2023-02-28T14:47:23;9.02;;;7.70;;
735;SDS011;352;48.626;9.238;2023-02-28T14:49:53;10.32;;;8.48;;
735;SDS011;352;48.626;9.238;2023-02-28T14:52:21;9.20;;;8.10;;
735;SDS011;352;48.626;9.238;2023-02-28T14:54:52;10.30;;;8.45;;
735;SDS011;352;48.626;9.238;2023-02-28T14:57:22;9.20;;;8.23;;
735;SDS011;352;48.626;9.238;2023-02-28T14:59:58;9.90;;;8.48;;
735;SDS011;352;48.626;9.238;2023-02-28T15:02:30;9.05;;;8.15;;
735;SDS011;352;48.626;9.238;2023-02-28T15:05:22;10.43;;;8.43;;
735;SDS011;352;48.626;9.238;2023-02-28T15:07:49;8.88;;;7.78;;
735;SDS011;352;48.626;9.238;2023-02-28T15:10:29;8.35;;;7.40;;
735;SDS011;352;48.626;9.238;2023-02-28T15:12:57;13.00;;;8.45;;
735;SDS011;352;48.626;9.238;2023-02-28T15:15:25;7.57;;;6.82;;
735;SDS011;352;48.626;9.238;2023-02-28T15:18:00;10.90;;;7.68;;
735;SDS011;352;48.626;9.238;2023-02-28T15:20:30;8.52;;;7.63;;
735;SDS011;352;48.626;9.238;2023-02-28T15:22:58;9.52;;;6.75;;
735;SDS011;352;48.626;9.238;2023-02-28T15:25:25;11.25;;;8.52;;
735;SDS011;352;48.626;9.238;2023-02-28T15:27:55;10.38;;;8.60;;
735;SDS011;352;48.626;9.238;2023-02-28T15:30:24;9.63;;;6.78;;
735;SDS011;352;48.626;9.238;2023-02-28T15:33:03;10.48;;;8.10;;
735;SDS011;352;48.626;9.238;2023-02-28T15:35:33;10.98;;;7.45;;
735;SDS011;352;48.626;9.238;2023-02-28T15:38:01;9.43;;;8.38;;
735;SDS011;352;48.626;9.238;2023-02-28T15:40:31;9.27;;;8.13;;
735;SDS011;352;48.626;9.238;2023-02-28T15:43:02;11.43;;;8.88;;
735;SDS011;352;48.626;9.238;2023-02-28T15:45:32;9.30;;;8.35;;
735;SDS011;352;48.626;9.238;2023-02-28T15:48:03;10.25;;;7.13;;
735;SDS011;352;48.626;9.238;2023-02-28T15:50:30;8.85;;;7.63;;
735;SDS011;352;48.626;9.238;2023-02-28T15:52:57;9.70;;;7.70;;
735;SDS011;352;48.626;9.238;2023-02-28T15:55:28;8.50;;;7.38;;
735;SDS011;352;48.626;9.238;2023-02-28T15:57:56;11.45;;;8.75;;
735;SDS011;352;48.626;9.238;2023-02-28T16:00:28;10.05;;;8.23;;
735;SDS011;352;48.626;9.238;2023-02-28T16:02:57;9.85;;;7.25;;
735;SDS011;352;48.626;9.238;2023-02-28T16:05:25;12.05;;;9.55;;
735;SDS011;352;48.626;9.238;2023-02-28T16:07:57;10.65;;;8.25;;
735;SDS011;352;48.626;9.238;2023-02-28T16:10:26;11.60;;;8.68;;
735;SDS011;352;48.626;9.238;2023-02-28T16:12:54;13.25;;;9.73;;
735;SDS011;352;48.626;9.238;2023-02-28T16:15:23;10.63;;;8.45;;
735;SDS011;352;48.626;9.238;2023-02-28T16:17:53;15.48;;;8.20;;
735;SDS011;352;48.626;9.238;2023-02-28T16:20:21;8.18;;;6.85;;
735;SDS011;352;48.626;9.238;2023-02-28T16:22:49;9.95;;;7.78;;
735;SDS011;352;48.626;9.238;2023-02-28T16:25:17;10.05;;;8.02;;
735;SDS011;352;48.626;9.238;2023-02-28T16:27:46;9.10;;;7.60;;
735;SDS011;352;48.626;9.238;2023-02-28T16:30:16;9.35;;;7.10;;
735;SDS011;352;48.626;9.238;2023-02-28T16:32:46;8.68;;;7.38;;
735;SDS011;352;48.626;9.238;2023-02-28T16:35:15;10.25;;;8.20;;
735;SDS011;352;48.626;9.238;2023-02-28T16:37:42;10.23;;;8.60;;
735;SDS011;352;48.626;9.238;2023-02-28T16:40:13;9.35;;;8.45;;
735;SDS011;352;48.626;9.238;2023-02-28T16:42:41;9.77;;;7.53;;
735;SDS011;352;48.626;9.238;2023-02-28T16:45:14;10.35;;;8.30;;
735;SDS011;352;48.626;9.238;2023-02-28T16:47:43;10.45;;;8.35;;
735;SDS011;352;48.626;9.238;2023-02-28T16:50:12;9.75;;;7.75;;